sensor_id;sensor_type;location;lat;lon;timestamp;temperature;humidity
76168;DHT22;64927;48.214;16.378;2023-05-23T00:01:10;20.50;59.60
76168;DHT22;64927;48.214;16.378;2023-05-23T00:03:35;20.50;59.70
76168;DHT22;64927;48.214;16.378;2023-05-23T00:06:01;20.50;59.90
76168;DHT22;64927;48.214;16.378;2023-05-23T00:08:28;20.50;59.80
76168;DHT22;64927;48.214;16.378;2023-05-23T00:10:57;20.50;59.80
76168;DHT22;64927;48.214;16.378;2023-05-23T00:13:22;20.50;59.70
76168;DHT22;64927;48.214;16.378;2023-05-23T00:15:48;20.50;59.60
76168;DHT22;64927;48.214;16.378;2023-05-23T00:18:18;20.30;60.50
76168;DHT22;64927;48.214;16.378;2023-05-23T00:20:53;20.30;60.30
76168;DHT22;64927;48.214;16.378;2023-05-23T00:23:19;20.20;60.50
76168;DHT22;64927;48.214;16.378;2023-05-23T00:25:48;20.10;60.50
76168;DHT22;64927;48.214;16.378;2023-05-23T00:28:17;20.10;60.70
76168;DHT22;64927;48.214;16.378;2023-05-23T00:30:43;20.00;61.00
76168;DHT22;64927;48.214;16.378;2023-05-23T00:33:11;20.00;61.00
76168;DHT22;64927;48.214;16.378;2023-05-23T00:35:39;20.00;61.30
76168;DHT22;64927;48.214;16.378;2023-05-23T00:38:05;20.00;61.20
76168;DHT22;64927;48.214;16.378;2023-05-23T00:40:32;20.00;61.10
76168;DHT22;64927;48.214;16.378;2023-05-23T00:43:00;20.00;61.20
76168;DHT22;64927;48.214;16.378;2023-05-23T00:45:26;20.00;61.20
76168;DHT22;64927;48.214;16.378;2023-05-23T00:47:52;20.00;61.40
76168;DHT22;64927;48.214;16.378;2023-05-23T00:50:23;19.90;61.50
76168;DHT22;64927;48.214;16.378;2023-05-23T00:52:50;19.80;61.70
76168;DHT22;64927;48.214;16.378;2023-05-23T00:55:16;19.70;62.00
76168;DHT22;64927;48.214;16.378;2023-05-23T00:57:43;19.70;62.30
76168;DHT22;64927;48.214;16.378;2023-05-23T01:00:15;19.70;62.30
76168;DHT22;64927;48.214;16.378;2023-05-23T01:02:45;19.60;62.40
76168;DHT22;64927;48.214;16.378;2023-05-23T01:05:16;19.60;62.90
76168;DHT22;64927;48.214;16.378;2023-05-23T01:07:45;19.60;62.70
76168;DHT22;64927;48.214;16.378;2023-05-23T01:10:25;19.60;63.00
76168;DHT22;64927;48.214;16.378;2023-05-23T01:15:41;19.80;62.60
76168;DHT22;64927;48.214;16.378;2023-05-23T01:18:16;19.80;62.70
76168;DHT22;64927;48.214;16.378;2023-05-23T01:20:51;19.80;62.40
76168;DHT22;64927;48.214;16.378;2023-05-23T01:26:17;19.80;62.70
76168;DHT22;64927;48.214;16.378;2023-05-23T01:28:54;19.70;63.10
76168;DHT22;64927;48.214;16.378;2023-05-23T01:31:23;19.60;63.00
76168;DHT22;64927;48.214;16.378;2023-05-23T01:33:49;19.50;63.30
76168;DHT22;64927;48.214;16.378;2023-05-23T01:36:20;19.40;63.50
76168;DHT22;64927;48.214;16.378;2023-05-23T01:38:48;19.40;64.60
76168;DHT22;64927;48.214;16.378;2023-05-23T01:41:14;19.30;64.10
76168;DHT22;64927;48.214;16.378;2023-05-23T01:43:39;19.40;63.90
76168;DHT22;64927;48.214;16.378;2023-05-23T01:46:07;19.40;64.50
76168;DHT22;64927;48.214;16.378;2023-05-23T01:48:34;19.30;63.70
76168;DHT22;64927;48.214;16.378;2023-05-23T01:51:01;19.30;64.10
76168;DHT22;64927;48.214;16.378;2023-05-23T01:53:29;19.30;64.20
76168;DHT22;64927;48.214;16.378;2023-05-23T01:55:58;19.20;64.60
76168;DHT22;64927;48.214;16.378;2023-05-23T01:58:31;19.20;65.90
76168;DHT22;64927;48.214;16.378;2023-05-23T02:00:56;19.20;65.60
76168;DHT22;64927;48.214;16.378;2023-05-23T02:03:22;19.30;65.70
76168;DHT22;64927;48.214;16.378;2023-05-23T02:05:50;19.30;65.30
76168;DHT22;64927;48.214;16.378;2023-05-23T02:08:18;19.30;65.80
76168;DHT22;64927;48.214;16.378;2023-05-23T02:10:44;19.20;65.90
76168;DHT22;64927;48.214;16.378;2023-05-23T02:13:12;19.10;66.60
76168;DHT22;64927;48.214;16.378;2023-05-23T02:15:37;19.00;67.30
76168;DHT22;64927;48.214;16.378;2023-05-23T02:18:05;18.90;69.20
76168;DHT22;64927;48.214;16.378;2023-05-23T02:20:33;18.90;69.20
76168;DHT22;64927;48.214;16.378;2023-05-23T02:23:01;18.90;68.90
76168;DHT22;64927;48.214;16.378;2023-05-23T02:25:29;18.90;69.80
76168;DHT22;64927;48.214;16.378;2023-05-23T02:27:55;18.80;70.30
76168;DHT22;64927;48.214;16.378;2023-05-23T02:30:21;18.80;69.70
76168;DHT22;64927;48.214;16.378;2023-05-23T02:32:48;18.80;70.60
76168;DHT22;64927;48.214;16.378;2023-05-23T02:35:14;18.70;70.30
76168;DHT22;64927;48.214;16.378;2023-05-23T02:37:42;18.70;70.20
76168;DHT22;64927;48.214;16.378;2023-05-23T02:40:08;18.70;70.50
76168;DHT22;64927;48.214;16.378;2023-05-23T02:42:36;18.60;71.00
76168;DHT22;64927;48.214;16.378;2023-05-23T02:45:02;18.60;70.30
76168;DHT22;64927;48.214;16.378;2023-05-23T02:47:27;18.70;70.30
76168;DHT22;64927;48.214;16.378;2023-05-23T02:49:53;18.70;70.00
76168;DHT22;64927;48.214;16.378;2023-05-23T02:52:21;18.60;70.40
76168;DHT22;64927;48.214;16.378;2023-05-23T02:54:48;18.60;71.00
76168;DHT22;64927;48.214;16.378;2023-05-23T02:57:16;18.60;71.10
76168;DHT22;64927;48.214;16.378;2023-05-23T02:59:44;18.60;70.30
76168;DHT22;64927;48.214;16.378;2023-05-23T03:02:10;18.60;70.40
76168;DHT22;64927;48.214;16.378;2023-05-23T03:04:36;18.50;70.90
76168;DHT22;64927;48.214;16.378;2023-05-23T03:07:03;18.60;70.60
76168;DHT22;64927;48.214;16.378;2023-05-23T03:09:32;18.60;70.70
76168;DHT22;64927;48.214;16.378;2023-05-23T03:12:00;18.60;70.90
76168;DHT22;64927;48.214;16.378;2023-05-23T03:14:30;18.60;70.90
76168;DHT22;64927;48.214;16.378;2023-05-23T03:16:58;18.60;70.80
76168;DHT22;64927;48.214;16.378;2023-05-23T03:19:26;18.50;71.30
76168;DHT22;64927;48.214;16.378;2023-05-23T03:21:51;18.40;72.00
76168;DHT22;64927;48.214;16.378;2023-05-23T03:24:17;18.40;71.60
76168;DHT22;64927;48.214;16.378;2023-05-23T03:26:45;18.40;71.60
76168;DHT22;64927;48.214;16.378;2023-05-23T03:29:11;18.30;71.80
76168;DHT22;64927;48.214;16.378;2023-05-23T03:31:36;18.30;71.40
76168;DHT22;64927;48.214;16.378;2023-05-23T03:34:03;18.40;71.20
76168;DHT22;64927;48.214;16.378;2023-05-23T03:36:34;18.50;70.70
76168;DHT22;64927;48.214;16.378;2023-05-23T03:39:03;18.50;70.50
76168;DHT22;64927;48.214;16.378;2023-05-23T03:41:31;18.50;70.60
76168;DHT22;64927;48.214;16.378;2023-05-23T03:43:57;18.60;70.30
76168;DHT22;64927;48.214;16.378;2023-05-23T03:46:25;18.50;70.30
76168;DHT22;64927;48.214;16.378;2023-05-23T03:48:50;18.50;70.70
76168;DHT22;64927;48.214;16.378;2023-05-23T03:51:16;18.40;70.90
76168;DHT22;64927;48.214;16.378;2023-05-23T03:53:42;18.30;71.10
76168;DHT22;64927;48.214;16.378;2023-05-23T03:56:07;18.40;70.70
76168;DHT22;64927;48.214;16.378;2023-05-23T03:58:35;18.50;70.30
76168;DHT22;64927;48.214;16.378;2023-05-23T04:01:03;18.50;70.10
76168;DHT22;64927;48.214;16.378;2023-05-23T04:03:29;18.60;70.00
76168;DHT22;64927;48.214;16.378;2023-05-23T04:05:59;18.50;70.10
76168;DHT22;64927;48.214;16.378;2023-05-23T04:08:29;18.60;70.00
76168;DHT22;64927;48.214;16.378;2023-05-23T04:11:00;18.60;70.70
76168;DHT22;64927;48.214;16.378;2023-05-23T04:13:27;18.60;69.80
76168;DHT22;64927;48.214;16.378;2023-05-23T04:15:55;18.50;70.10
76168;DHT22;64927;48.214;16.378;2023-05-23T04:18:26;18.50;70.10
76168;DHT22;64927;48.214;16.378;2023-05-23T04:20:56;18.60;69.60
76168;DHT22;64927;48.214;16.378;2023-05-23T04:23:25;18.60;69.70
76168;DHT22;64927;48.214;16.378;2023-05-23T04:25:52;18.60;69.50
76168;DHT22;64927;48.214;16.378;2023-05-23T04:28:18;18.70;69.30
76168;DHT22;64927;48.214;16.378;2023-05-23T04:30:44;18.60;69.40
76168;DHT22;64927;48.214;16.378;2023-05-23T04:33:09;18.60;69.60
76168;DHT22;64927;48.214;16.378;2023-05-23T04:35:38;18.70;69.30
76168;DHT22;64927;48.214;16.378;2023-05-23T04:38:07;18.90;68.70
76168;DHT22;64927;48.214;16.378;2023-05-23T04:40:33;19.00;68.50
76168;DHT22;64927;48.214;16.378;2023-05-23T04:42:58;19.10;68.00
76168;DHT22;64927;48.214;16.378;2023-05-23T04:45:26;19.00;68.50
76168;DHT22;64927;48.214;16.378;2023-05-23T04:47:54;19.10;68.50
76168;DHT22;64927;48.214;16.378;2023-05-23T04:50:23;19.30;67.80
76168;DHT22;64927;48.214;16.378;2023-05-23T04:52:48;19.30;67.60
76168;DHT22;64927;48.214;16.378;2023-05-23T04:55:14;19.40;67.70
76168;DHT22;64927;48.214;16.378;2023-05-23T04:57:42;19.40;67.40
76168;DHT22;64927;48.214;16.378;2023-05-23T05:00:10;19.60;67.10
76168;DHT22;64927;48.214;16.378;2023-05-23T05:02:39;19.70;66.70
76168;DHT22;64927;48.214;16.378;2023-05-23T05:05:05;20.00;66.10
76168;DHT22;64927;48.214;16.378;2023-05-23T05:07:31;20.10;65.60
76168;DHT22;64927;48.214;16.378;2023-05-23T05:10:04;20.10;65.10
76168;DHT22;64927;48.214;16.378;2023-05-23T05:12:30;20.20;66.00
76168;DHT22;64927;48.214;16.378;2023-05-23T05:14:56;20.20;64.80
76168;DHT22;64927;48.214;16.378;2023-05-23T05:17:21;20.30;64.70
76168;DHT22;64927;48.214;16.378;2023-05-23T05:19:47;20.40;64.30
76168;DHT22;64927;48.214;16.378;2023-05-23T05:22:15;20.60;64.50
76168;DHT22;64927;48.214;16.378;2023-05-23T05:24:40;20.50;63.80
76168;DHT22;64927;48.214;16.378;2023-05-23T05:27:06;20.70;63.20
76168;DHT22;64927;48.214;16.378;2023-05-23T05:29:35;20.70;63.30
76168;DHT22;64927;48.214;16.378;2023-05-23T05:32:01;20.70;63.20
76168;DHT22;64927;48.214;16.378;2023-05-23T05:34:27;20.50;63.40
76168;DHT22;64927;48.214;16.378;2023-05-23T05:36:55;20.70;63.20
76168;DHT22;64927;48.214;16.378;2023-05-23T05:39:23;20.60;63.40
76168;DHT22;64927;48.214;16.378;2023-05-23T05:41:50;20.90;62.80
76168;DHT22;64927;48.214;16.378;2023-05-23T05:44:23;21.20;61.80
76168;DHT22;64927;48.214;16.378;2023-05-23T05:46:48;21.50;61.10
76168;DHT22;64927;48.214;16.378;2023-05-23T05:49:14;21.50;60.50
76168;DHT22;64927;48.214;16.378;2023-05-23T05:51:40;21.60;60.00
76168;DHT22;64927;48.214;16.378;2023-05-23T05:54:06;21.70;60.10
76168;DHT22;64927;48.214;16.378;2023-05-23T05:56:31;22.00;58.90
76168;DHT22;64927;48.214;16.378;2023-05-23T05:58:57;22.00;59.10
76168;DHT22;64927;48.214;16.378;2023-05-23T06:01:22;22.10;58.40
76168;DHT22;64927;48.214;16.378;2023-05-23T06:03:49;22.40;58.20
76168;DHT22;64927;48.214;16.378;2023-05-23T06:06:15;22.50;57.10
76168;DHT22;64927;48.214;16.378;2023-05-23T06:08:41;22.60;58.40
76168;DHT22;64927;48.214;16.378;2023-05-23T06:11:07;23.00;57.00
76168;DHT22;64927;48.214;16.378;2023-05-23T06:13:32;23.20;56.00
76168;DHT22;64927;48.214;16.378;2023-05-23T06:15:58;23.40;55.20
76168;DHT22;64927;48.214;16.378;2023-05-23T06:18:24;23.70;55.00
76168;DHT22;64927;48.214;16.378;2023-05-23T06:20:55;24.10;53.10
76168;DHT22;64927;48.214;16.378;2023-05-23T06:23:20;24.20;53.70
76168;DHT22;64927;48.214;16.378;2023-05-23T06:25:49;24.70;52.80
76168;DHT22;64927;48.214;16.378;2023-05-23T06:28:14;25.30;51.70
76168;DHT22;64927;48.214;16.378;2023-05-23T06:30:40;25.80;49.50
76168;DHT22;64927;48.214;16.378;2023-05-23T06:33:06;26.20;48.40
76168;DHT22;64927;48.214;16.378;2023-05-23T06:35:36;26.40;47.40
76168;DHT22;64927;48.214;16.378;2023-05-23T06:38:01;26.50;48.10
76168;DHT22;64927;48.214;16.378;2023-05-23T06:40:27;26.40;45.40
76168;DHT22;64927;48.214;16.378;2023-05-23T06:42:55;26.10;46.40
76168;DHT22;64927;48.214;16.378;2023-05-23T06:45:21;26.50;47.30
76168;DHT22;64927;48.214;16.378;2023-05-23T06:47:47;27.40;44.90
76168;DHT22;64927;48.214;16.378;2023-05-23T06:50:15;27.60;43.40
76168;DHT22;64927;48.214;16.378;2023-05-23T06:52:46;27.60;43.40
76168;DHT22;64927;48.214;16.378;2023-05-23T06:55:12;27.60;42.10
76168;DHT22;64927;48.214;16.378;2023-05-23T06:57:42;27.70;42.10
76168;DHT22;64927;48.214;16.378;2023-05-23T07:00:11;28.00;42.50
76168;DHT22;64927;48.214;16.378;2023-05-23T07:02:38;27.90;42.60
76168;DHT22;64927;48.214;16.378;2023-05-23T07:05:04;28.20;40.80
76168;DHT22;64927;48.214;16.378;2023-05-23T07:07:30;28.30;40.90
76168;DHT22;64927;48.214;16.378;2023-05-23T07:09:55;28.70;41.50
76168;DHT22;64927;48.214;16.378;2023-05-23T07:12:24;29.20;39.40
76168;DHT22;64927;48.214;16.378;2023-05-23T07:14:50;29.10;39.10
76168;DHT22;64927;48.214;16.378;2023-05-23T07:17:15;28.90;39.60
76168;DHT22;64927;48.214;16.378;2023-05-23T07:19:41;28.50;40.60
76168;DHT22;64927;48.214;16.378;2023-05-23T07:22:07;28.60;39.60
76168;DHT22;64927;48.214;16.378;2023-05-23T07:24:32;28.40;41.00
76168;DHT22;64927;48.214;16.378;2023-05-23T07:27:01;28.70;40.70
76168;DHT22;64927;48.214;16.378;2023-05-23T07:29:26;29.20;39.30
76168;DHT22;64927;48.214;16.378;2023-05-23T07:31:54;29.20;39.30
76168;DHT22;64927;48.214;16.378;2023-05-23T07:34:20;29.20;38.60
76168;DHT22;64927;48.214;16.378;2023-05-23T07:36:46;29.10;39.20
76168;DHT22;64927;48.214;16.378;2023-05-23T07:39:14;29.10;39.20
76168;DHT22;64927;48.214;16.378;2023-05-23T07:41:46;29.30;38.90
76168;DHT22;64927;48.214;16.378;2023-05-23T07:44:14;29.40;39.30
76168;DHT22;64927;48.214;16.378;2023-05-23T07:46:40;29.80;38.30
76168;DHT22;64927;48.214;16.378;2023-05-23T07:49:06;30.10;37.40
76168;DHT22;64927;48.214;16.378;2023-05-23T07:51:31;29.70;37.20
76168;DHT22;64927;48.214;16.378;2023-05-23T07:53:57;29.70;37.80
76168;DHT22;64927;48.214;16.378;2023-05-23T07:56:23;30.20;37.60
76168;DHT22;64927;48.214;16.378;2023-05-23T07:58:48;30.60;36.00
76168;DHT22;64927;48.214;16.378;2023-05-23T08:01:14;30.60;35.70
76168;DHT22;64927;48.214;16.378;2023-05-23T08:03:39;30.60;36.80
76168;DHT22;64927;48.214;16.378;2023-05-23T08:06:05;30.90;35.70
76168;DHT22;64927;48.214;16.378;2023-05-23T08:08:34;30.90;35.70
76168;DHT22;64927;48.214;16.378;2023-05-23T08:11:03;31.00;36.60
76168;DHT22;64927;48.214;16.378;2023-05-23T08:13:31;31.50;35.10
76168;DHT22;64927;48.214;16.378;2023-05-23T08:16:00;31.70;34.50
76168;DHT22;64927;48.214;16.378;2023-05-23T08:18:27;31.70;34.50
76168;DHT22;64927;48.214;16.378;2023-05-23T08:20:55;31.80;34.00
76168;DHT22;64927;48.214;16.378;2023-05-23T08:23:23;31.80;33.90
76168;DHT22;64927;48.214;16.378;2023-05-23T08:25:48;31.50;32.90
76168;DHT22;64927;48.214;16.378;2023-05-23T08:28:16;31.70;33.20
76168;DHT22;64927;48.214;16.378;2023-05-23T08:30:42;32.00;32.30
76168;DHT22;64927;48.214;16.378;2023-05-23T08:33:07;32.20;32.50
76168;DHT22;64927;48.214;16.378;2023-05-23T08:35:33;32.60;32.30
76168;DHT22;64927;48.214;16.378;2023-05-23T08:38:01;32.80;31.70
76168;DHT22;64927;48.214;16.378;2023-05-23T08:40:29;32.90;31.40
76168;DHT22;64927;48.214;16.378;2023-05-23T08:42:55;32.60;31.50
76168;DHT22;64927;48.214;16.378;2023-05-23T08:45:21;32.40;31.00
76168;DHT22;64927;48.214;16.378;2023-05-23T08:47:50;32.60;31.80
76168;DHT22;64927;48.214;16.378;2023-05-23T08:50:17;32.80;31.60
76168;DHT22;64927;48.214;16.378;2023-05-23T08:52:56;33.10;30.40
76168;DHT22;64927;48.214;16.378;2023-05-23T08:55:28;33.20;30.50
76168;DHT22;64927;48.214;16.378;2023-05-23T08:57:57;33.10;30.10
76168;DHT22;64927;48.214;16.378;2023-05-23T09:00:26;33.10;30.40
76168;DHT22;64927;48.214;16.378;2023-05-23T09:02:52;33.00;30.10
76168;DHT22;64927;48.214;16.378;2023-05-23T09:05:21;33.00;30.30
76168;DHT22;64927;48.214;16.378;2023-05-23T09:07:48;33.20;30.30
76168;DHT22;64927;48.214;16.378;2023-05-23T09:10:14;33.00;30.30
76168;DHT22;64927;48.214;16.378;2023-05-23T09:12:47;33.20;30.20
76168;DHT22;64927;48.214;16.378;2023-05-23T09:15:15;33.10;29.80
76168;DHT22;64927;48.214;16.378;2023-05-23T09:17:44;32.80;30.30
76168;DHT22;64927;48.214;16.378;2023-05-23T09:20:11;32.80;30.50
76168;DHT22;64927;48.214;16.378;2023-05-23T09:22:38;33.00;30.50
76168;DHT22;64927;48.214;16.378;2023-05-23T09:25:04;32.90;30.20
76168;DHT22;64927;48.214;16.378;2023-05-23T09:27:30;33.00;30.10
76168;DHT22;64927;48.214;16.378;2023-05-23T09:29:56;32.90;30.10
76168;DHT22;64927;48.214;16.378;2023-05-23T09:32:23;32.70;30.60
76168;DHT22;64927;48.214;16.378;2023-05-23T09:34:56;32.70;30.30
76168;DHT22;64927;48.214;16.378;2023-05-23T09:37:29;32.50;30.20
76168;DHT22;64927;48.214;16.378;2023-05-23T09:39:56;32.50;30.60
76168;DHT22;64927;48.214;16.378;2023-05-23T09:42:22;32.30;30.80
76168;DHT22;64927;48.214;16.378;2023-05-23T09:44:48;32.30;31.10
76168;DHT22;64927;48.214;16.378;2023-05-23T09:47:17;32.50;31.10
76168;DHT22;64927;48.214;16.378;2023-05-23T09:49:45;32.30;30.90
76168;DHT22;64927;48.214;16.378;2023-05-23T09:52:14;32.60;31.10
76168;DHT22;64927;48.214;16.378;2023-05-23T09:54:44;32.60;30.60
76168;DHT22;64927;48.214;16.378;2023-05-23T09:57:11;32.40;30.20
76168;DHT22;64927;48.214;16.378;2023-05-23T09:59:39;32.00;30.70
76168;DHT22;64927;48.214;16.378;2023-05-23T10:02:11;32.00;30.90
76168;DHT22;64927;48.214;16.378;2023-05-23T10:04:38;31.90;31.50
76168;DHT22;64927;48.214;16.378;2023-05-23T10:07:12;31.90;32.60
76168;DHT22;64927;48.214;16.378;2023-05-23T10:09:41;32.00;31.30
76168;DHT22;64927;48.214;16.378;2023-05-23T10:12:35;31.80;31.80
76168;DHT22;64927;48.214;16.378;2023-05-23T10:15:04;31.40;31.40
76168;DHT22;64927;48.214;16.378;2023-05-23T10:17:34;30.90;32.80
76168;DHT22;64927;48.214;16.378;2023-05-23T10:20:09;31.10;33.30
76168;DHT22;64927;48.214;16.378;2023-05-23T10:22:38;31.10;32.80
76168;DHT22;64927;48.214;16.378;2023-05-23T10:25:05;30.90;33.00
76168;DHT22;64927;48.214;16.378;2023-05-23T10:27:36;30.60;32.50
76168;DHT22;64927;48.214;16.378;2023-05-23T10:30:02;30.70;33.30
76168;DHT22;64927;48.214;16.378;2023-05-23T10:32:29;30.60;33.50
76168;DHT22;64927;48.214;16.378;2023-05-23T10:38:15;30.70;33.20
76168;DHT22;64927;48.214;16.378;2023-05-23T10:46:07;30.80;33.00
76168;DHT22;64927;48.214;16.378;2023-05-23T10:48:41;30.80;32.80
76168;DHT22;64927;48.214;16.378;2023-05-23T10:51:12;30.80;32.90
76168;DHT22;64927;48.214;16.378;2023-05-23T10:53:43;30.90;32.50
76168;DHT22;64927;48.214;16.378;2023-05-23T10:56:10;30.90;32.30
76168;DHT22;64927;48.214;16.378;2023-05-23T10:58:38;31.00;32.50
76168;DHT22;64927;48.214;16.378;2023-05-23T11:01:04;31.00;32.10
76168;DHT22;64927;48.214;16.378;2023-05-23T11:09:10;30.80;32.30
76168;DHT22;64927;48.214;16.378;2023-05-23T11:14:30;30.80;31.90
76168;DHT22;64927;48.214;16.378;2023-05-23T11:17:13;30.80;31.80
76168;DHT22;64927;48.214;16.378;2023-05-23T11:20:03;30.90;31.70
76168;DHT22;64927;48.214;16.378;2023-05-23T11:22:34;31.00;32.50
76168;DHT22;64927;48.214;16.378;2023-05-23T11:25:05;31.00;33.00
76168;DHT22;64927;48.214;16.378;2023-05-23T11:27:38;31.00;33.20
76168;DHT22;64927;48.214;16.378;2023-05-23T11:30:13;30.90;33.20
76168;DHT22;64927;48.214;16.378;2023-05-23T11:32:39;30.90;33.30
76168;DHT22;64927;48.214;16.378;2023-05-23T11:35:10;30.80;33.70
76168;DHT22;64927;48.214;16.378;2023-05-23T11:37:39;30.80;33.70
76168;DHT22;64927;48.214;16.378;2023-05-23T11:40:44;30.80;33.90
76168;DHT22;64927;48.214;16.378;2023-05-23T11:43:14;30.80;33.40
76168;DHT22;64927;48.214;16.378;2023-05-23T11:45:41;30.80;32.80
76168;DHT22;64927;48.214;16.378;2023-05-23T11:48:13;30.70;32.00
76168;DHT22;64927;48.214;16.378;2023-05-23T11:53:10;30.40;31.40
76168;DHT22;64927;48.214;16.378;2023-05-23T11:55:39;30.10;31.00
76168;DHT22;64927;48.214;16.378;2023-05-23T11:58:05;29.90;31.90
76168;DHT22;64927;48.214;16.378;2023-05-23T12:00:31;29.60;32.50
76168;DHT22;64927;48.214;16.378;2023-05-23T12:02:56;29.70;32.30
76168;DHT22;64927;48.214;16.378;2023-05-23T12:05:24;29.50;33.00
76168;DHT22;64927;48.214;16.378;2023-05-23T12:07:52;29.70;32.90
76168;DHT22;64927;48.214;16.378;2023-05-23T12:10:18;29.60;33.00
76168;DHT22;64927;48.214;16.378;2023-05-23T12:12:46;29.50;32.80
76168;DHT22;64927;48.214;16.378;2023-05-23T12:15:13;29.40;33.00
76168;DHT22;64927;48.214;16.378;2023-05-23T12:17:45;29.60;32.90
76168;DHT22;64927;48.214;16.378;2023-05-23T12:20:14;29.50;32.90
76168;DHT22;64927;48.214;16.378;2023-05-23T12:22:41;29.50;32.40
76168;DHT22;64927;48.214;16.378;2023-05-23T12:25:09;29.30;32.70
76168;DHT22;64927;48.214;16.378;2023-05-23T12:27:35;29.40;33.00
76168;DHT22;64927;48.214;16.378;2023-05-23T12:30:10;29.60;32.80
76168;DHT22;64927;48.214;16.378;2023-05-23T12:32:40;29.80;32.70
76168;DHT22;64927;48.214;16.378;2023-05-23T12:35:08;29.80;32.20
76168;DHT22;64927;48.214;16.378;2023-05-23T12:37:37;29.90;32.00
76168;DHT22;64927;48.214;16.378;2023-05-23T12:40:17;30.00;32.50
76168;DHT22;64927;48.214;16.378;2023-05-23T12:42:49;30.20;32.80
76168;DHT22;64927;48.214;16.378;2023-05-23T12:45:36;30.30;32.80
76168;DHT22;64927;48.214;16.378;2023-05-23T12:48:02;30.30;32.30
76168;DHT22;64927;48.214;16.378;2023-05-23T12:50:28;30.40;31.70
76168;DHT22;64927;48.214;16.378;2023-05-23T12:52:55;30.30;32.10
76168;DHT22;64927;48.214;16.378;2023-05-23T12:55:26;30.20;32.20
76168;DHT22;64927;48.214;16.378;2023-05-23T12:57:51;30.00;32.70
76168;DHT22;64927;48.214;16.378;2023-05-23T13:00:17;29.90;33.10
76168;DHT22;64927;48.214;16.378;2023-05-23T13:02:43;29.90;33.30
76168;DHT22;64927;48.214;16.378;2023-05-23T13:05:13;29.70;33.80
76168;DHT22;64927;48.214;16.378;2023-05-23T13:07:39;29.80;34.00
76168;DHT22;64927;48.214;16.378;2023-05-23T13:10:06;30.00;34.10
76168;DHT22;64927;48.214;16.378;2023-05-23T13:12:31;30.20;34.20
76168;DHT22;64927;48.214;16.378;2023-05-23T13:14:58;30.20;34.30
76168;DHT22;64927;48.214;16.378;2023-05-23T13:17:26;30.30;34.10
76168;DHT22;64927;48.214;16.378;2023-05-23T13:19:52;30.20;34.10
76168;DHT22;64927;48.214;16.378;2023-05-23T13:22:20;30.30;34.40
76168;DHT22;64927;48.214;16.378;2023-05-23T13:24:46;30.40;34.10
76168;DHT22;64927;48.214;16.378;2023-05-23T13:27:11;30.20;34.60
76168;DHT22;64927;48.214;16.378;2023-05-23T13:29:41;30.10;34.60
76168;DHT22;64927;48.214;16.378;2023-05-23T13:32:07;29.80;35.10
76168;DHT22;64927;48.214;16.378;2023-05-23T13:34:35;29.60;35.60
76168;DHT22;64927;48.214;16.378;2023-05-23T13:37:03;29.50;35.50
76168;DHT22;64927;48.214;16.378;2023-05-23T13:39:32;29.20;35.50
76168;DHT22;64927;48.214;16.378;2023-05-23T13:42:02;29.00;36.30
76168;DHT22;64927;48.214;16.378;2023-05-23T13:44:28;28.90;36.90
76168;DHT22;64927;48.214;16.378;2023-05-23T13:46:54;28.80;37.50
76168;DHT22;64927;48.214;16.378;2023-05-23T13:49:21;28.80;38.30
76168;DHT22;64927;48.214;16.378;2023-05-23T13:51:49;28.50;38.60
76168;DHT22;64927;48.214;16.378;2023-05-23T13:54:15;28.40;39.50
76168;DHT22;64927;48.214;16.378;2023-05-23T13:56:41;28.30;39.70
76168;DHT22;64927;48.214;16.378;2023-05-23T13:59:06;28.10;40.80
76168;DHT22;64927;48.214;16.378;2023-05-23T14:01:32;27.90;41.30
76168;DHT22;64927;48.214;16.378;2023-05-23T14:03:57;27.50;42.20
76168;DHT22;64927;48.214;16.378;2023-05-23T14:06:23;27.30;42.60
76168;DHT22;64927;48.214;16.378;2023-05-23T14:08:51;27.20;42.40
76168;DHT22;64927;48.214;16.378;2023-05-23T14:11:24;27.00;42.20
76168;DHT22;64927;48.214;16.378;2023-05-23T14:13:52;26.70;41.40
76168;DHT22;64927;48.214;16.378;2023-05-23T14:16:18;26.50;42.70
76168;DHT22;64927;48.214;16.378;2023-05-23T14:18:46;25.90;45.50
76168;DHT22;64927;48.214;16.378;2023-05-23T14:21:14;25.40;47.60
76168;DHT22;64927;48.214;16.378;2023-05-23T14:23:40;24.90;49.70
76168;DHT22;64927;48.214;16.378;2023-05-23T14:26:05;24.70;51.20
76168;DHT22;64927;48.214;16.378;2023-05-23T14:28:31;24.20;53.60
76168;DHT22;64927;48.214;16.378;2023-05-23T14:30:57;23.50;56.20
76168;DHT22;64927;48.214;16.378;2023-05-23T14:33:24;23.20;58.80
76168;DHT22;64927;48.214;16.378;2023-05-23T14:35:54;23.00;58.70
76168;DHT22;64927;48.214;16.378;2023-05-23T14:38:20;22.80;59.50
76168;DHT22;64927;48.214;16.378;2023-05-23T14:40:46;22.70;59.60
76168;DHT22;64927;48.214;16.378;2023-05-23T14:43:13;22.80;60.00
76168;DHT22;64927;48.214;16.378;2023-05-23T14:45:41;22.70;58.70
76168;DHT22;64927;48.214;16.378;2023-05-23T14:48:09;22.60;58.70
76168;DHT22;64927;48.214;16.378;2023-05-23T14:50:37;22.60;59.20
76168;DHT22;64927;48.214;16.378;2023-05-23T14:53:02;22.70;60.60
76168;DHT22;64927;48.214;16.378;2023-05-23T14:55:30;22.90;59.20
76168;DHT22;64927;48.214;16.378;2023-05-23T14:57:56;23.10;59.60
76168;DHT22;64927;48.214;16.378;2023-05-23T15:00:22;23.30;60.10
76168;DHT22;64927;48.214;16.378;2023-05-23T15:02:49;23.40;57.50
76168;DHT22;64927;48.214;16.378;2023-05-23T15:05:15;23.60;55.80
76168;DHT22;64927;48.214;16.378;2023-05-23T15:07:43;23.80;56.70
76168;DHT22;64927;48.214;16.378;2023-05-23T15:10:12;23.90;55.10
76168;DHT22;64927;48.214;16.378;2023-05-23T15:12:38;23.80;55.00
76168;DHT22;64927;48.214;16.378;2023-05-23T15:15:04;23.60;56.30
76168;DHT22;64927;48.214;16.378;2023-05-23T15:17:31;23.70;56.90
76168;DHT22;64927;48.214;16.378;2023-05-23T15:19:56;23.60;56.40
76168;DHT22;64927;48.214;16.378;2023-05-23T15:22:22;23.50;57.10
76168;DHT22;64927;48.214;16.378;2023-05-23T15:24:48;23.30;57.10
76168;DHT22;64927;48.214;16.378;2023-05-23T15:27:13;23.20;58.70
76168;DHT22;64927;48.214;16.378;2023-05-23T15:29:39;23.00;59.60
76168;DHT22;64927;48.214;16.378;2023-05-23T15:32:08;22.80;61.60
76168;DHT22;64927;48.214;16.378;2023-05-23T15:34:34;22.70;61.60
76168;DHT22;64927;48.214;16.378;2023-05-23T15:37:02;22.60;62.90
76168;DHT22;64927;48.214;16.378;2023-05-23T15:39:30;22.40;63.80
76168;DHT22;64927;48.214;16.378;2023-05-23T15:41:58;22.20;64.50
76168;DHT22;64927;48.214;16.378;2023-05-23T15:44:27;22.10;65.70